Elliot Chaparral Reserve, California Weather observations

Data are for 10 minute period ending at time listed.
 Day   Time   Solar   Ave.   Ave.  Ave.  Vector  Max.   Baro.   Total    
  of    of     Rad.   Air    Rel.  Wind   Wind   Wind  Press.  Precip.   
Year   Day            Temp.  Hum.  Speed  Dir.   Gust                    
2015   (PST)  Kw/m2    F      %     mph   deg.    mph    mb.     in.     
-------------------------------------------------------------------------
 143   21:20   0.00   58.1    77    6.1   285     8.5   988.5    0.00 
 143   21:30   0.00   58.1    78    5.1   275     6.5   988.5    0.00 
 143   21:40   0.00   58.1    78    3.4   292     5.5   988.5    0.00 
 143   21:50   0.00   58.1    78    4.7   292     6.9   988.5    0.00 
 143   22:00   0.00   58.1    79    5.4   295     7.2   988.4    0.00 
 143   22:10   0.00   58.1    79    5.1   277     7.0   988.2    0.00 
 143   22:20   0.00   58.0    79    5.4   280     7.3   988.1    0.00 
 143   22:30   0.00   58.0    79    4.7   289     6.3   987.9    0.00 
 143   22:40   0.00   58.0    79    5.3   305     7.2   987.9    0.00 
 143   22:50   0.00   57.9    79    5.6   298     6.9   987.9    0.00 
 143   23:00   0.00   57.8    79    5.1   291     6.6   987.8    0.00 
 143   23:10   0.00   57.9    80    4.9   295     7.4   987.7    0.00 
 143   23:20   0.00   57.8    81    4.8   291     6.5   987.5    0.00 
 143   23:30   0.00   57.7    81    4.1   286     5.5   987.3    0.00 
 143   23:40   0.00   57.7    81    3.8   272     4.7   987.2    0.00 
 143   23:50   0.00   57.7    81    3.3   280     4.7   987.1    0.00 
 144    0:00   0.00   57.7    81    3.8   274     4.6   987.1    0.00 
 144    0:10   0.00   57.7    82    3.1   288     4.1   987.0    0.00 
 144    0:20   0.00   57.7    82    3.2   278     3.9   987.0    0.00 
 144    0:30   0.00   57.7    82    3.4   268     4.8   986.9    0.00 
 144    0:40   0.00   57.7    82    3.7   250     4.7   986.9    0.00 
 144    0:50   0.00   57.7    82    4.0   254     4.9   986.7    0.00 
 144    1:00   0.00   57.7    82    3.8   239     5.8   986.6    0.00 
 144    1:10   0.00   57.5    82    5.0   233     6.3   986.6    0.00 
 144    1:20   0.00   57.5    82    4.7   228     5.9   986.6    0.00 
 144    1:30   0.00   57.4    81    5.4   246     6.8   986.7    0.00 
 144    1:40   0.00   57.4    80    6.9   244     8.6   986.8    0.00 
 144    1:50   0.00   57.4    79    7.7   245     9.1   986.8    0.00 
 144    2:00   0.00   57.4    79    8.3   235    10.2   986.7    0.00 
 144    2:10   0.00   57.4    79    9.1   239    12.5   986.7    0.00 
 144    2:20   0.00   57.3    82   10.0   238    12.7   986.7    0.00 
 144    2:30   0.00   56.9    83   10.8   235    13.2   986.6    0.00 
 144    2:40   0.00   56.8    83   11.5   242    13.6   986.7    0.00 
 144    2:50   0.00   56.7    84    9.7   250    12.8   986.6    0.00 
 144    3:00   0.00   56.6    84    8.5   241    11.5   986.6    0.00 
 144    3:10   0.00   56.5    83    7.3   257    10.0   986.8    0.00 
 144    3:20   0.00   56.5    83    8.8   272    11.0   987.0    0.00 
 144    3:30   0.00   56.4    83    9.0   269    10.4   987.0    0.00 
 144    3:40   0.00   56.4    82    7.6   254    10.2   986.8    0.00 
 144    3:50   0.00   56.3    82    8.2   268    10.2   986.7    0.00 
 144    4:00   0.00   56.3    82    7.2   256     8.8   986.6    0.00 
 144    4:10   0.00   56.3    82    6.6   253     8.8   986.5    0.00 
 144    4:20   0.00   56.3    82    7.3   252    10.2   986.7    0.00 
 144    4:30   0.00   56.2    82    8.3   252    10.1   986.6    0.00 
 144    4:40   0.00   56.1    82    9.2   256    11.5   986.8    0.00 
 144    4:50   0.00   56.2    81    9.9   252    12.4   986.9    0.00 
 144    5:00   0.00   56.2    81    8.9   253    12.4   987.0    0.00 
 144    5:10   0.00   56.3    80    7.7   256    11.5   987.0    0.00 
 144    5:20   0.00   56.3    80    7.4   258     9.7   987.1    0.00 
 144    5:30   0.01   56.4    80    6.3   254     9.1   987.1    0.00 
 144    5:40   0.02   56.5    80    7.9   236     9.9   987.0    0.00 
 144    5:50   0.04   56.6    80    6.9   234     9.3   987.2    0.00 
 144    6:00   0.04   56.8    80    5.7   234     8.3   987.2    0.00 
 144    6:10   0.04   56.8    79    6.3   239     8.6   987.5    0.00 
 144    6:20   0.04   56.8    79    6.0   249     8.0   987.5    0.00 
 144    6:30   0.04   56.9    78    6.4   259     8.6   987.6    0.00 
 144    6:40   0.04   56.9    78    7.1   253     9.9   987.7    0.00 
 144    6:50   0.05   56.9    78    7.1   268     9.6   987.7    0.00 
 144    7:00   0.09   57.3    77    6.6   252     9.1   987.7    0.00 
 144    7:10   0.13   58.0    75    6.6   245     9.0   987.6    0.00 
 144    7:20   0.09   58.2    75    5.3   250     8.6   987.7    0.00 
 144    7:30   0.09   58.0    74    5.9   256     9.3   987.8    0.00 
 144    7:40   0.08   58.0    74    5.5   255     9.1   987.9    0.00 
 144    7:50   0.09   58.2    73    5.6   250     8.3   987.9    0.00 
 144    8:00   0.10   58.4    73    5.4   257     7.2   987.8    0.00 
 144    8:10   0.12   58.5    73    5.0   256     7.8   987.8    0.00 
 144    8:20   0.14   58.7    72    5.2   226     9.1   987.9    0.00 
 144    8:30   0.10   58.8    71    3.6   257     6.9   988.0    0.00 
 144    8:40   0.11   59.1    71    4.1   262     6.6   988.0    0.00 
 144    8:50   0.11   59.3    70    3.2   244     6.3   988.0    0.00 
 144    9:00   0.10   59.5    68    4.6   204     7.1   988.1    0.00 
 144    9:10   0.10   59.7    68    3.3   223     5.6   988.1    0.00 
 144    9:20   0.12   59.7    68    4.6   254     7.8   988.1    0.00 
 144    9:30   0.12   59.9    68    4.3   307     6.6   988.1    0.00 
 144    9:40   0.14   60.0    67    4.9   255     8.6   988.2    0.00 
 144    9:50   0.21   60.4    66    3.9   275     7.2   988.1    0.00 
 144   10:00   0.25   60.9    65    4.4   292     6.7   988.1    0.00 
 144   10:10   0.38   61.5    64    4.9   309     9.7   988.0    0.00 
 144   10:20   0.33   62.0    64    4.5   319     6.9   988.1    0.00 
 144   10:30   0.31   62.1    63    5.6   338    10.0   988.1    0.00 
 144   10:40   0.38   62.7    62    4.0   344     6.1   988.0    0.00 
 144   10:50   0.28   62.1    63    4.9   302     8.1   988.0    0.00 
 144   11:00   0.43   62.5    62    2.4   327     7.2   987.9    0.00 
 144   11:10   0.55   63.6    60    5.1   332     8.9   987.9    0.00 
 144   11:20   0.58   63.4    61    4.1   284    10.0   987.7    0.00 
 144   11:30   0.69   65.8    57    4.9   321     9.3   987.5    0.00 
 144   11:40   0.56   65.9    56    4.8   312     8.3   987.4    0.00 
 144   11:50   0.45   66.1    56    3.2   274     6.6   987.3    0.00 
 144   12:00   0.44   66.0    56    2.8   240     5.7   987.2    0.00 
 144   12:10   0.38   65.7    56    1.8   178     4.4   987.2    0.00 
 144   12:20   0.35   66.3    56    4.0   286     7.9   987.0    0.00 
 144   12:30   0.32   65.8    56    4.3   252     8.8   987.0    0.00 
 144   12:40   0.33   65.6    57    6.9   240    11.3   986.9    0.00 
 144   12:50   0.27   65.1    58    9.4   270    14.0   986.8    0.00 
 144   13:00   0.31   64.6    58   10.3   280    15.6   986.7    0.00 
 144   13:10   0.36   64.0    58   11.1   269    15.9   986.7    0.00 
 144   13:20   0.39   64.2    58    9.3   283    15.5   986.6    0.00 
 144   13:30   0.40   64.3    57    9.9   287    15.3   986.6    0.00 
 144   13:40   0.39   63.8    58    7.9   298    13.2   986.5    0.00 
 144   13:50   0.36   64.7    57    7.5   292    13.4   986.5    0.00 
 144   14:00   0.33   64.6    56    9.9   272    13.8   986.5    0.00 
 144   14:10   0.33   64.1    57   10.7   284    14.7   986.5    0.00 
 144   14:20   0.33   63.9    58    9.2   290    14.1   986.5    0.00 
 144   14:30   0.35   64.4    57    9.2   286    14.7   986.5    0.00 
 144   14:40   0.38   64.2    58   11.5   285    16.7   986.4    0.00 
 144   14:50   0.35   63.5    59   12.6   290    16.8   986.3    0.00 
 144   15:00   0.29   63.0    59   11.8   301    17.8   986.2    0.00 
 144   15:10   0.26   62.5    60   11.8   299    17.9   986.2    0.00 
 144   15:20   0.37   63.2    58   10.4   298    15.9   986.1    0.00 
 144   15:30   0.45   64.4    56   10.0   324    15.6   986.1    0.00 
 144   15:40   0.50   64.0    58   11.6   330    15.9   986.0    0.00 
 144   15:50   0.41   63.9    58   10.8   317    15.4   985.9    0.00 
 144   16:00   0.37   63.7    59   10.5   321    14.5   985.9    0.00 
 144   16:10   0.28   63.3    60    9.0   336    13.2   985.9    0.00 
 144   16:20   0.21   63.2    60    8.1   315    11.0   985.8    0.00 
 144   16:30   0.20   63.3    60    7.6   330    12.4   985.7    0.00 
 144   16:40   0.21   63.3    61    8.1   332    11.8   985.6    0.00 
 144   16:50   0.23   63.8    60    7.3   330    11.7   985.4    0.00 
 144   17:00   0.27   65.6    57    6.2   325    10.7   985.3    0.00 
 144   17:10   0.27   66.3    56    6.9   324    10.4   985.2    0.00 
 144   17:20   0.22   66.0    57    6.2     1     9.8   985.1    0.00 
 144   17:30   0.18   64.9    59    5.2     9     8.8   985.1    0.00 
 144   17:40   0.15   65.5    58    6.5   317     9.3   985.1    0.00 
 144   17:50   0.12   64.7    60    5.9   334     9.6   985.2    0.00 
 144   18:00   0.09   63.6    63    7.6   301    11.0   985.1    0.00 
 144   18:10   0.07   63.5    63    6.8   317     9.4   985.1    0.00 
 144   18:20   0.05   62.9    64    6.9   310     8.8   985.2    0.00 
 144   18:30   0.03   62.3    66    6.4   304     8.7   985.3    0.00 
 144   18:40   0.01   61.4    68    6.5   316     8.8   985.4    0.00 
 144   18:50   0.00   60.7    69    6.8   312     8.3   985.4    0.00 
 144   19:00   0.00   60.1    70    5.5   329     7.3   985.2    0.00 
 144   19:10   0.00   59.8    71    5.5   322     8.1   985.2    0.00 
 144   19:20   0.00   59.4    74    4.8   313     8.0   985.3    0.00 
 144   19:30   0.00   59.1    75    4.6   284     8.1   985.4    0.00 
 144   19:40   0.00   58.5    79    8.6   282    11.6   985.5    0.00 
 144   19:50   0.00   58.0    82   10.2   293    12.6   985.5    0.00 
 144   20:00   0.00   57.6    84    9.9   300    12.6   985.6    0.00 
 144   20:10   0.00   57.3    86    8.6   299    11.6   985.6    0.00 
 144   20:20   0.00   57.2    87    9.5   293    12.2   985.7    0.00 
 144   20:30   0.00   57.0    87    8.5   294    11.0   985.9    0.00 
 144   20:40   0.00   57.0    87    7.6   297    10.4   986.1    0.00 
 144   20:50   0.00   57.1    87    7.8   301    11.6   986.3    0.00 
 144   21:00   0.00   57.3    86    8.0   302    11.3   986.3    0.00 
 144   21:10   0.00   57.3    86    7.1   307     9.6   986.4    0.00 

Return to Elliot Chaparral Reserve graphs page.


Western Regional Climate Center,wrcc@dri.edu